Airfield :
LOGIN :

Register | Disclaimer

   EN    FR    IT 

 










Legend :    VFR   Marginal VFR   IFR   Intensive IFR   Very Intensive IFR
Visi :
Ceiling :
>= 8 km
>= 3000ft
5 to 8 km
1000 to 3000 ft
1500m to 5 km
500 to 1000 ft
800 to 1500m
200 to 500 ft
< 800m
< 200 ft
Symbols :   Thunderstorms  Fog  Heavy snow  Heavy precipitations  Wind > 20 kt
SIGMETs :     Misc.  Thunderstorms  Icing  Turbulence  Mountain Waves  Volcanic Ashes







- Airport Elevation : 278 ft
- IATA code : RJK


LDRI - Rijeka

CURRENT METAR :
  • 121730Z 07008KT 9999 -RA FEW023 OVC059 10/08 Q1014

EXPIRED METARs :
  • 121700Z 33004KT 290V030 9999 -RA FEW023 OVC059 10/08 Q1014
  • 121630Z VRB02KT 8000 -RA FEW013 SCT036 OVC052 10/08 Q1013
  • 121600Z 03005KT 8000 -RA FEW013 SCT036 OVC052 10/09 Q1013 RERA
  • 121530Z 04005KT 8000 RA FEW013 BKN033 OVC069 11/09 Q1013
  • 121500Z 03004KT 8000 -RA FEW013 BKN033 OVC069 11/09 Q1012 RERA

TAF TAF LDRI
Valid from the 12 at 12:00 until the 13 at 12:00 UTC


121125Z 1212/1312 22006KT 9999 SCT030 BKN040 TX13/1212Z TN07/1305Z
TEMPO 1212/1223 RA BKN014 OVC035
No reported NOTAMs for that airfield.
2 SIGMETs reported for the Zagreb FIR (LDZO) :
 
SIGMET 10 cancelation
LDZO SIGMET 11 VALID 121621/121800 LDZA
LDZO ZAGREB FIR CNL SIGMET 10 121400/121800=
SIGMET 10  CANCELED :
Severe icing
LDZO SIGMET 10 VALID 121400/121800 LDZA
LDZO ZAGREB FIR SEV ICE FCST NW OF LINE N4330 E01431 - N4452 E01900 FL080/200 STNR NC=



MET'MAP, your aeronautical weather chart ! - Copyright ORBIFLY December 2007 - Disclaimer

ORBIFLY MET'MAP TEAM :

Programming & Development : Alexandra Zaïnal
Concept & Development : Baudouin d'Aumeries
Co-Development & Prog : Marc-Olivier Méhu
Technical & hardware support : Manuel Goepfert

Contact : metmap@orbifly.com




SOURCES & CREDITS :

   NOAA